createdAt,value
2018-07-18T00:00:58.251Z,0
2018-07-18T00:01:58.840Z,0
2018-07-18T00:02:59.403Z,0
2018-07-18T00:03:59.952Z,0
2018-07-18T00:05:00.491Z,0
2018-07-18T00:06:01.049Z,0
2018-07-18T00:07:01.600Z,0
2018-07-18T00:08:02.154Z,0
2018-07-18T00:09:02.701Z,0
2018-07-18T00:10:03.256Z,0
2018-07-18T00:11:03.804Z,0
2018-07-18T00:12:04.355Z,0
2018-07-18T00:13:04.908Z,0
2018-07-18T00:14:05.463Z,0
2018-07-18T00:15:06.015Z,0
2018-07-18T00:16:06.565Z,0
2018-07-18T00:17:07.118Z,0
2018-07-18T00:18:07.672Z,0
2018-07-18T00:19:08.227Z,0
2018-07-18T00:20:08.778Z,0
2018-07-18T00:21:09.332Z,0
2018-07-18T00:22:09.907Z,0
2018-07-18T00:23:10.440Z,0
2018-07-18T00:24:10.995Z,0
2018-07-18T00:25:11.554Z,0
2018-07-18T00:26:12.094Z,0
2018-07-18T00:27:12.656Z,0
2018-07-18T00:28:13.204Z,0
2018-07-18T00:29:13.832Z,0
2018-07-18T00:30:14.313Z,0
2018-07-18T00:31:14.867Z,0
2018-07-18T00:32:15.421Z,0
2018-07-18T00:33:15.976Z,0
2018-07-18T00:34:16.533Z,0
2018-07-18T00:35:17.085Z,0
2018-07-18T00:36:17.645Z,0
2018-07-18T00:37:18.201Z,0
2018-07-18T00:38:18.759Z,0
2018-07-18T00:39:19.306Z,0
2018-07-18T00:40:19.861Z,0
2018-07-18T00:41:20.415Z,0
2018-07-18T00:42:20.967Z,0
2018-07-18T00:43:21.520Z,0
2018-07-18T00:44:22.074Z,0
2018-07-18T00:45:22.630Z,0
2018-07-18T00:46:23.181Z,0
2018-07-18T00:47:23.734Z,0
2018-07-18T00:48:24.291Z,0
2018-07-18T00:49:24.842Z,0
2018-07-18T00:50:25.394Z,0
2018-07-18T00:51:25.940Z,0
2018-07-18T00:52:26.493Z,0
2018-07-18T00:53:27.047Z,0
2018-07-18T00:54:27.600Z,0
2018-07-18T00:55:28.153Z,0
2018-07-18T00:56:28.714Z,0
2018-07-18T00:57:29.261Z,0
2018-07-18T00:58:29.806Z,0
2018-07-18T00:59:30.361Z,0
2018-07-18T01:00:30.915Z,0
2018-07-18T01:01:31.471Z,0
2018-07-18T01:02:32.015Z,0
2018-07-18T01:03:32.574Z,0
2018-07-18T01:04:33.124Z,0
2018-07-18T01:05:33.679Z,0
2018-07-18T01:06:34.235Z,0
2018-07-18T01:07:34.786Z,0
2018-07-18T01:08:35.343Z,0
2018-07-18T01:09:35.888Z,0
2018-07-18T01:10:36.445Z,0
2018-07-18T01:11:36.997Z,0
2018-07-18T01:12:37.547Z,0
2018-07-18T01:13:38.099Z,0
2018-07-18T01:14:38.651Z,0
2018-07-18T01:15:39.204Z,0
2018-07-18T01:16:39.762Z,0
2018-07-18T01:17:40.312Z,0
2018-07-18T01:18:40.856Z,0
2018-07-18T01:19:41.410Z,0
2018-07-18T01:20:41.964Z,0
2018-07-18T01:21:42.517Z,0
2018-07-18T01:22:43.072Z,0
2018-07-18T01:23:43.624Z,0
2018-07-18T01:24:44.177Z,0
2018-07-18T01:25:44.729Z,0
2018-07-18T01:26:45.288Z,0
2018-07-18T01:27:45.838Z,0
2018-07-18T01:28:46.385Z,0
2018-07-18T01:29:46.938Z,0
2018-07-18T01:30:47.491Z,0
2018-07-18T01:31:48.045Z,0
2018-07-18T01:32:48.597Z,0
2018-07-18T01:33:49.150Z,0
2018-07-18T01:34:49.704Z,0
2018-07-18T01:35:50.254Z,0
2018-07-18T01:36:50.805Z,0
2018-07-18T01:37:51.366Z,0
2018-07-18T01:38:51.914Z,0
2018-07-18T01:39:52.472Z,0
2018-07-18T01:40:53.051Z,0
2018-07-18T01:41:53.579Z,0
2018-07-18T01:42:54.132Z,0
2018-07-18T01:43:54.683Z,0
2018-07-18T01:44:55.234Z,0
2018-07-18T01:45:55.786Z,0
2018-07-18T01:46:56.338Z,0
2018-07-18T01:47:56.892Z,0
2018-07-18T01:48:57.446Z,0
2018-07-18T01:49:58.004Z,0
2018-07-18T01:50:58.555Z,0
2018-07-18T01:51:59.108Z,0
2018-07-18T01:52:59.653Z,0
2018-07-18T01:54:00.208Z,0
2018-07-18T01:55:00.758Z,0
2018-07-18T01:56:01.312Z,0
2018-07-18T01:57:01.859Z,0
2018-07-18T01:58:02.413Z,0
2018-07-18T01:59:02.959Z,0
2018-07-18T02:00:03.510Z,0
2018-07-18T02:01:04.061Z,0
2018-07-18T02:02:04.617Z,0
2018-07-18T02:03:05.173Z,0
2018-07-18T02:04:05.725Z,0
2018-07-18T02:05:06.285Z,0
2018-07-18T02:06:06.830Z,0
2018-07-18T02:07:07.382Z,0
2018-07-18T02:08:07.939Z,0
2018-07-18T02:09:08.492Z,0
2018-07-18T02:10:09.047Z,0
2018-07-18T02:11:09.595Z,0
2018-07-18T02:12:10.152Z,0
2018-07-18T02:13:10.709Z,0
2018-07-18T02:14:11.259Z,0
2018-07-18T02:15:11.807Z,0
2018-07-18T02:16:12.355Z,0
2018-07-18T02:17:12.908Z,0
2018-07-18T02:18:13.460Z,0
2018-07-18T02:19:14.016Z,0
2018-07-18T02:20:14.566Z,0
2018-07-18T02:21:15.111Z,0
2018-07-18T02:22:15.664Z,0
2018-07-18T02:23:16.213Z,0
2018-07-18T02:24:16.760Z,0
2018-07-18T02:25:17.312Z,0
2018-07-18T02:26:17.867Z,0
2018-07-18T02:27:18.414Z,0
2018-07-18T02:28:18.966Z,0
2018-07-18T02:29:19.523Z,0
2018-07-18T02:30:20.074Z,0
2018-07-18T02:31:20.627Z,0
2018-07-18T02:32:21.178Z,0
2018-07-18T02:33:21.733Z,0
2018-07-18T02:34:22.277Z,0
2018-07-18T02:35:22.833Z,0
2018-07-18T02:36:23.384Z,0
2018-07-18T02:37:23.938Z,0
2018-07-18T02:38:24.491Z,0
2018-07-18T02:39:25.043Z,0
2018-07-18T02:40:25.592Z,0
2018-07-18T02:41:26.146Z,0
2018-07-18T02:42:26.701Z,0
2018-07-18T02:43:27.255Z,0
2018-07-18T02:44:27.811Z,0
2018-07-18T02:45:28.365Z,0
2018-07-18T02:46:28.919Z,0
2018-07-18T02:47:29.472Z,0
2018-07-18T02:48:30.024Z,0
2018-07-18T02:49:30.581Z,0
2018-07-18T02:50:31.130Z,0
2018-07-18T02:51:31.686Z,0
2018-07-18T02:52:32.238Z,0
2018-07-18T02:53:32.791Z,0
2018-07-18T02:54:33.348Z,0
2018-07-18T02:55:33.957Z,0
2018-07-18T02:56:34.448Z,0
2018-07-18T02:57:34.999Z,0
2018-07-18T02:58:35.553Z,0
2018-07-18T02:59:36.112Z,4
2018-07-18T03:00:36.652Z,4
2018-07-18T03:01:37.206Z,4
2018-07-18T03:02:37.759Z,4
2018-07-18T03:03:38.303Z,0
2018-07-18T03:04:38.860Z,4
2018-07-18T03:05:39.412Z,4
2018-07-18T03:06:39.960Z,8
2018-07-18T03:07:40.514Z,8
2018-07-18T03:08:41.059Z,8
2018-07-18T03:09:41.605Z,8
2018-07-18T03:10:42.155Z,8
2018-07-18T03:11:42.710Z,12
2018-07-18T03:12:43.264Z,12
2018-07-18T03:13:43.817Z,12
2018-07-18T03:14:44.367Z,20
2018-07-18T03:15:44.915Z,24
2018-07-18T03:16:45.469Z,24
2018-07-18T03:17:46.022Z,28
2018-07-18T03:18:46.570Z,28
2018-07-18T03:19:47.120Z,36
2018-07-18T03:20:47.674Z,40
2018-07-18T03:21:48.227Z,48
2018-07-18T03:22:48.778Z,52
2018-07-18T03:23:49.335Z,60
2018-07-18T03:24:49.887Z,68
2018-07-18T03:25:50.441Z,76
2018-07-18T03:26:50.994Z,88
2018-07-18T03:27:51.542Z,96
2018-07-18T03:28:52.095Z,108
2018-07-18T03:29:52.649Z,120
2018-07-18T03:30:53.201Z,132
2018-07-18T03:31:53.760Z,148
2018-07-18T03:32:54.315Z,172
2018-07-18T03:33:54.862Z,188
2018-07-18T03:34:55.420Z,208
2018-07-18T03:35:55.977Z,232
2018-07-18T03:36:56.555Z,260
2018-07-18T03:37:57.077Z,284
2018-07-18T03:38:57.632Z,312
2018-07-18T03:39:58.183Z,336
2018-07-18T03:40:58.735Z,372
2018-07-18T03:41:59.289Z,400
2018-07-18T03:42:59.843Z,432
2018-07-18T03:44:00.403Z,468
2018-07-18T03:45:00.956Z,504
2018-07-18T03:46:01.515Z,544
2018-07-18T03:47:02.071Z,580
2018-07-18T03:48:02.622Z,624
2018-07-18T03:49:03.178Z,664
2018-07-18T03:50:03.731Z,708
2018-07-18T03:51:04.281Z,752
2018-07-18T03:52:04.837Z,800
2018-07-18T03:53:05.397Z,844
2018-07-18T03:54:05.954Z,892
2018-07-18T03:55:06.504Z,944
2018-07-18T03:56:07.056Z,992
2018-07-18T03:57:07.616Z,1040
2018-07-18T03:58:08.171Z,1096
2018-07-18T03:59:08.736Z,1148
2018-07-18T04:00:09.290Z,1208
2018-07-18T04:01:09.845Z,1264
2018-07-18T04:02:10.400Z,1324
2018-07-18T04:03:10.958Z,1380
2018-07-18T04:04:11.514Z,1444
2018-07-18T04:05:12.077Z,1504
2018-07-18T04:06:12.633Z,1560
2018-07-18T04:07:13.194Z,1624
2018-07-18T04:08:13.751Z,1684
2018-07-18T04:09:14.312Z,1744
2018-07-18T04:10:14.874Z,1812
2018-07-18T04:11:15.457Z,1880
2018-07-18T04:12:15.975Z,1944
2018-07-18T04:13:16.533Z,2012
2018-07-18T04:14:17.089Z,2072
2018-07-18T04:15:17.643Z,2128
2018-07-18T04:16:18.201Z,2188
2018-07-18T04:17:18.750Z,2256
2018-07-18T04:18:19.307Z,2320
2018-07-18T04:19:19.870Z,2388
2018-07-18T04:20:20.430Z,2444
2018-07-18T04:21:20.984Z,2512
2018-07-18T04:22:21.538Z,2576
2018-07-18T04:23:22.096Z,2640
2018-07-18T04:24:22.654Z,2704
2018-07-18T04:25:23.217Z,2768
2018-07-18T04:26:23.771Z,2836
2018-07-18T04:27:24.363Z,2904
2018-07-18T04:28:24.919Z,2968
2018-07-18T04:29:25.503Z,3032
2018-07-18T04:30:26.037Z,3096
2018-07-18T04:31:26.585Z,3156
2018-07-18T04:32:27.143Z,3220
2018-07-18T04:33:27.701Z,3276
2018-07-18T04:34:28.249Z,3336
2018-07-18T04:35:28.862Z,3400
2018-07-18T04:36:29.354Z,3456
2018-07-18T04:37:29.916Z,3516
2018-07-18T04:38:30.482Z,3580
2018-07-18T04:39:31.024Z,3644
2018-07-18T04:40:31.577Z,3708
2018-07-18T04:41:32.135Z,3768
2018-07-18T04:42:32.685Z,3836
2018-07-18T04:43:33.242Z,3892
2018-07-18T04:44:33.805Z,3956
2018-07-18T04:45:34.362Z,4024
2018-07-18T04:46:34.923Z,4072
2018-07-18T04:47:35.473Z,4140
2018-07-18T04:48:36.034Z,4208
2018-07-18T04:49:36.596Z,4268
2018-07-18T04:50:37.160Z,4324
2018-07-18T04:51:37.718Z,4388
2018-07-18T04:52:38.285Z,4460
2018-07-18T04:53:38.867Z,4528
2018-07-18T04:54:39.386Z,4832
2018-07-18T04:55:40.009Z,5336
2018-07-18T04:56:40.503Z,6364
2018-07-18T04:57:41.061Z,7424
2018-07-18T04:58:41.624Z,7740
2018-07-18T04:59:42.186Z,7812
2018-07-18T05:00:42.750Z,7980
2018-07-18T05:01:43.307Z,8072
2018-07-18T05:02:43.863Z,7176
2018-07-18T05:03:44.425Z,6236
2018-07-18T05:04:44.985Z,5252
2018-07-18T05:05:45.549Z,5200
2018-07-18T05:06:46.109Z,5256
2018-07-18T05:07:46.669Z,5336
2018-07-18T05:08:47.231Z,5392
2018-07-18T05:09:47.850Z,6260
2018-07-18T05:10:48.359Z,8304
2018-07-18T05:11:48.922Z,9916
2018-07-18T05:12:49.484Z,10104
2018-07-18T05:13:50.050Z,10268
2018-07-18T05:14:50.608Z,10496
2018-07-18T05:15:51.260Z,10656
2018-07-18T05:16:51.733Z,10948
2018-07-18T05:17:52.302Z,11168
2018-07-18T05:18:52.856Z,11292
2018-07-18T05:19:53.415Z,9760
2018-07-18T05:20:53.971Z,8836
2018-07-18T05:21:54.594Z,10224
2018-07-18T05:22:55.116Z,11932
2018-07-18T05:23:55.687Z,12168
2018-07-18T05:24:56.258Z,12340
2018-07-18T05:25:56.828Z,11172
2018-07-18T05:26:57.389Z,8712
2018-07-18T05:27:57.957Z,6848
2018-07-18T05:28:58.518Z,8244
2018-07-18T05:29:59.211Z,11104
2018-07-18T05:30:59.676Z,13228
2018-07-18T05:32:00.245Z,13476
2018-07-18T05:33:00.810Z,13648
2018-07-18T05:34:01.405Z,13896
2018-07-18T05:35:01.948Z,14148
2018-07-18T05:36:02.518Z,14304
2018-07-18T05:37:03.091Z,14464
2018-07-18T05:38:03.662Z,14552
2018-07-18T05:39:04.234Z,14972
2018-07-18T05:40:04.797Z,13088
2018-07-18T05:41:05.366Z,9652
2018-07-18T05:42:05.933Z,7596
2018-07-18T05:43:06.505Z,10384
2018-07-18T05:44:07.078Z,14388
2018-07-18T05:45:07.652Z,16540
2018-07-18T05:46:08.223Z,16872
2018-07-18T05:47:08.794Z,17120
2018-07-18T05:48:09.366Z,17088
2018-07-18T05:49:09.941Z,17312
2018-07-18T05:50:10.513Z,17728
2018-07-18T05:51:11.085Z,18208
2018-07-18T05:52:11.666Z,18816
2018-07-18T05:53:12.242Z,18944
2018-07-18T05:54:12.810Z,18976
2018-07-18T05:55:13.386Z,18912
2018-07-18T05:56:13.961Z,18752
2018-07-18T05:57:14.537Z,19168
2018-07-18T05:58:15.108Z,19808
2018-07-18T05:59:15.682Z,20160
2018-07-18T06:00:16.257Z,20480
2018-07-18T06:01:16.831Z,20672
2018-07-18T06:02:17.400Z,21120
2018-07-18T06:03:17.975Z,21376
2018-07-18T06:04:18.545Z,21728
2018-07-18T06:05:19.117Z,22048
2018-07-18T06:06:19.696Z,22144
2018-07-18T06:07:20.272Z,22080
2018-07-18T06:08:20.855Z,22208
2018-07-18T06:09:21.424Z,22496
2018-07-18T06:10:22.060Z,22848
2018-07-18T06:11:22.573Z,23328
2018-07-18T06:12:23.155Z,24032
2018-07-18T06:13:23.729Z,24544
2018-07-18T06:14:24.302Z,24896
2018-07-18T06:15:24.880Z,24960
2018-07-18T06:16:25.454Z,24896
2018-07-18T06:17:26.051Z,25088
2018-07-18T06:18:26.604Z,25088
2018-07-18T06:19:27.174Z,23360
2018-07-18T06:20:27.749Z,16496
2018-07-18T06:21:28.367Z,14448
2018-07-18T06:22:28.941Z,21568
2018-07-18T06:23:29.517Z,27712
2018-07-18T06:24:30.095Z,28608
2018-07-18T06:25:30.660Z,27744
2018-07-18T06:26:31.233Z,26240
2018-07-18T06:27:31.809Z,28448
2018-07-18T06:28:32.389Z,28608
2018-07-18T06:29:32.990Z,28128
2018-07-18T06:30:33.529Z,29344
2018-07-18T06:31:34.104Z,29856
2018-07-18T06:32:34.681Z,29984
2018-07-18T06:33:35.248Z,30176
2018-07-18T06:34:35.824Z,31552
2018-07-18T06:35:36.391Z,31072
2018-07-18T06:36:37.034Z,33504
2018-07-18T06:37:37.532Z,32864
2018-07-18T06:38:38.111Z,30912
2018-07-18T06:39:38.685Z,32800
2018-07-18T06:40:39.260Z,32576
2018-07-18T06:41:39.834Z,32992
2018-07-18T06:42:40.402Z,33792
2018-07-18T06:43:40.975Z,33344
2018-07-18T06:44:41.543Z,34176
2018-07-18T06:45:42.119Z,34816
2018-07-18T06:46:42.697Z,34752
2018-07-18T06:47:43.265Z,35808
2018-07-18T06:48:43.841Z,35840
2018-07-18T06:49:44.415Z,35904
2018-07-18T06:50:44.989Z,36160
2018-07-18T06:51:45.564Z,36512
2018-07-18T06:52:46.149Z,37120
2018-07-18T06:53:46.713Z,37440
2018-07-18T06:54:47.296Z,37984
2018-07-18T06:55:47.863Z,38176
2018-07-18T06:56:48.431Z,38272
2018-07-18T06:57:49.009Z,38560
2018-07-18T06:58:49.578Z,38592
2018-07-18T06:59:50.155Z,38688
2018-07-18T07:00:50.740Z,39264
2018-07-18T07:01:51.298Z,39776
2018-07-18T07:02:51.874Z,39808
2018-07-18T07:03:52.450Z,40544
2018-07-18T07:04:53.025Z,40352
2018-07-18T07:05:53.600Z,39552
2018-07-18T07:06:54.180Z,38272
2018-07-18T07:07:54.782Z,40896
2018-07-18T07:08:55.328Z,43328
2018-07-18T07:09:55.896Z,43936
2018-07-18T07:10:56.499Z,43904
2018-07-18T07:11:57.048Z,43424
2018-07-18T07:12:57.627Z,42912
2018-07-18T07:13:58.201Z,42720
2018-07-18T07:14:58.771Z,43264
2018-07-18T07:15:59.348Z,43264
2018-07-18T07:16:59.925Z,43040
2018-07-18T07:18:00.501Z,43360
2018-07-18T07:19:01.085Z,43776
2018-07-18T07:20:01.649Z,43392
2018-07-18T07:21:02.218Z,43264
2018-07-18T07:22:02.798Z,46688
2018-07-18T07:23:03.372Z,48000
2018-07-18T07:24:03.944Z,47424
2018-07-18T07:25:04.524Z,47104
2018-07-18T07:26:05.098Z,46400
2018-07-18T07:27:05.672Z,46144
2018-07-18T07:28:06.250Z,46368
2018-07-18T07:29:06.860Z,48256
2018-07-18T07:30:07.401Z,49056
2018-07-18T07:31:07.972Z,49184
2018-07-18T07:32:08.550Z,45632
2018-07-18T07:33:09.126Z,46720
2018-07-18T07:34:09.697Z,46016
2018-07-18T07:35:10.275Z,47584
2018-07-18T07:36:10.849Z,49344
2018-07-18T07:37:11.421Z,50080
2018-07-18T07:38:11.997Z,50016
2018-07-18T07:39:12.573Z,50208
2018-07-18T07:40:13.152Z,48832
2018-07-18T07:41:13.760Z,49664
2018-07-18T07:42:14.302Z,52224
2018-07-18T07:43:14.869Z,53376
2018-07-18T07:44:15.453Z,54016
2018-07-18T07:45:16.024Z,53152
2018-07-18T07:46:16.607Z,52000
2018-07-18T07:47:17.170Z,48192
2018-07-18T07:48:17.779Z,43232
2018-07-18T07:49:18.325Z,48512
2018-07-18T07:50:18.903Z,55456
2018-07-18T07:51:19.474Z,55872
2018-07-18T07:52:20.054Z,58112
2018-07-18T07:53:20.635Z,58432
2018-07-18T07:54:21.205Z,54176
2018-07-18T07:55:21.780Z,57504
2018-07-18T07:56:22.362Z,54784
2018-07-18T07:57:22.931Z,56224
2018-07-18T07:58:23.496Z,54080
2018-07-18T07:59:24.077Z,53568
2018-07-18T08:00:24.695Z,53632
2018-07-18T08:01:25.226Z,54784
2018-07-18T08:02:25.801Z,58944
2018-07-18T08:03:26.377Z,60896
2018-07-18T08:04:26.952Z,62240
2018-07-18T08:05:27.529Z,62016
2018-07-18T08:06:28.105Z,60480
2018-07-18T08:07:28.691Z,60704
2018-07-18T08:08:29.263Z,59776
2018-07-18T08:09:29.838Z,62720
2018-07-18T08:10:30.407Z,65152
2018-07-18T08:11:30.986Z,66240
2018-07-18T08:12:31.563Z,66016
2018-07-18T08:13:32.144Z,63520
2018-07-18T08:14:32.711Z,62752
2018-07-18T08:15:33.287Z,63456
2018-07-18T08:16:33.863Z,63552
2018-07-18T08:17:34.436Z,61760
2018-07-18T08:18:35.012Z,59552
2018-07-18T08:19:35.589Z,63712
2018-07-18T08:20:36.167Z,64768
2018-07-18T08:21:36.732Z,67136
2018-07-18T08:22:37.309Z,66016
2018-07-18T08:23:37.874Z,65120
2018-07-18T08:24:38.459Z,65984
2018-07-18T08:25:39.030Z,67840
2018-07-18T08:26:39.654Z,68256
2018-07-18T08:27:40.165Z,67936
2018-07-18T08:28:40.741Z,65856
2018-07-18T08:29:41.319Z,64384
2018-07-18T08:30:41.896Z,67040
2018-07-18T08:31:42.468Z,67104
2018-07-18T08:32:43.049Z,65312
2018-07-18T08:33:43.624Z,66624
2018-07-18T08:34:44.201Z,66240
2018-07-18T08:35:44.771Z,67264
2018-07-18T08:36:45.349Z,70688
2018-07-18T08:37:45.921Z,72064
2018-07-18T08:38:46.491Z,71264
2018-07-18T08:39:47.068Z,72800
2018-07-18T08:40:47.642Z,72192
2018-07-18T08:41:48.222Z,71744
2018-07-18T08:42:48.797Z,75040
2018-07-18T08:43:49.365Z,77504
2018-07-18T08:44:49.944Z,77696
2018-07-18T08:45:50.518Z,77376
2018-07-18T08:46:51.084Z,78176
2018-07-18T08:47:51.659Z,76512
2018-07-18T08:48:52.240Z,77120
2018-07-18T08:49:52.806Z,79264
2018-07-18T08:50:53.376Z,82656
2018-07-18T08:51:53.952Z,83584
2018-07-18T08:52:54.523Z,84736
2018-07-18T08:53:55.095Z,81696
2018-07-18T08:54:55.668Z,80480
2018-07-18T08:55:56.246Z,79488
2018-07-18T08:56:56.811Z,80160
2018-07-18T08:57:57.381Z,81824
2018-07-18T08:58:58.026Z,81440
2018-07-18T08:59:58.548Z,80032
2018-07-18T09:00:59.135Z,81216
2018-07-18T09:01:59.700Z,82368
2018-07-18T09:03:00.273Z,78432
2018-07-18T09:04:00.847Z,80032
2018-07-18T09:05:01.454Z,74208
2018-07-18T09:06:02.043Z,75040
2018-07-18T09:07:02.615Z,73664
2018-07-18T09:08:03.191Z,63488
2018-07-18T09:09:03.776Z,71072
2018-07-18T09:10:04.339Z,71232
2018-07-18T09:11:04.917Z,71616
2018-07-18T09:12:05.492Z,76672
2018-07-18T09:13:06.090Z,79072
2018-07-18T09:14:06.630Z,80416
2018-07-18T09:15:07.206Z,77664
2018-07-18T09:16:07.789Z,72160
2018-07-18T09:17:08.397Z,73120
2018-07-18T09:18:09.018Z,74240
2018-07-18T09:19:09.575Z,71136
2018-07-18T09:20:10.143Z,84224
2018-07-18T09:21:10.709Z,87776
2018-07-18T09:22:11.294Z,86944
2018-07-18T09:23:11.870Z,83328
2018-07-18T09:24:12.453Z,86912
2018-07-18T09:25:13.026Z,85472
2018-07-18T09:26:13.635Z,81536
2018-07-18T09:27:14.232Z,82944
2018-07-18T09:28:14.803Z,77440
2018-07-18T09:29:15.380Z,85696
2018-07-18T09:30:15.958Z,85120
2018-07-18T09:31:16.537Z,88064
2018-07-18T09:32:17.106Z,81632
2018-07-18T09:33:17.687Z,76128
2018-07-18T09:34:18.263Z,74688
2018-07-18T09:35:18.845Z,80480
2018-07-18T09:36:19.407Z,81248
2018-07-18T09:37:19.983Z,84448
2018-07-18T09:38:20.562Z,82560
2018-07-18T09:39:21.137Z,84416
2018-07-18T09:40:21.705Z,81632
2018-07-18T09:41:22.285Z,82144
2018-07-18T09:42:22.857Z,76640
2018-07-18T09:43:23.432Z,76000
2018-07-18T09:44:24.009Z,74816
2018-07-18T09:45:24.609Z,80736
2018-07-18T09:46:25.180Z,77536
2018-07-18T09:47:25.858Z,78720
2018-07-18T09:48:26.322Z,87104
2018-07-18T09:49:26.899Z,89248
2018-07-18T09:50:27.476Z,88128
2018-07-18T09:51:28.051Z,88608
2018-07-18T09:52:28.619Z,90144
2018-07-18T09:53:29.197Z,91456
2018-07-18T09:54:29.768Z,91008
2018-07-18T09:55:30.341Z,88288
2018-07-18T09:56:30.910Z,87104
2018-07-18T09:57:31.487Z,88832
2018-07-18T09:58:32.066Z,91936
2018-07-18T09:59:32.649Z,92320
2018-07-18T10:00:33.216Z,92896
2018-07-18T10:01:33.792Z,90848
2018-07-18T10:02:34.367Z,86624
2018-07-18T10:03:34.945Z,85120
2018-07-18T10:04:35.514Z,90944
2018-07-18T10:05:36.090Z,94560
2018-07-18T10:06:36.666Z,99872
2018-07-18T10:07:37.248Z,103360
2018-07-18T10:08:37.819Z,103232
2018-07-18T10:09:38.393Z,98720
2018-07-18T10:10:38.969Z,93376
2018-07-18T10:11:39.538Z,91488
2018-07-18T10:12:40.113Z,92128
2018-07-18T10:13:40.691Z,97632
2018-07-18T10:14:41.264Z,100096
2018-07-18T10:15:41.850Z,104384
2018-07-18T10:16:42.462Z,102976
2018-07-18T10:17:42.997Z,104864
2018-07-18T10:18:43.576Z,102880
2018-07-18T10:19:44.151Z,102208
2018-07-18T10:20:44.737Z,104160
2018-07-18T10:21:45.310Z,105120
2018-07-18T10:22:45.888Z,96704
2018-07-18T10:23:46.459Z,103680
2018-07-18T10:24:47.032Z,104384
2018-07-18T10:25:47.614Z,105984
2018-07-18T10:26:48.179Z,109024
2018-07-18T10:27:48.826Z,108928
2018-07-18T10:28:49.331Z,104576
2018-07-18T10:29:49.909Z,105728
2018-07-18T10:30:50.479Z,104736
2018-07-18T10:31:51.057Z,64256
2018-07-18T10:32:51.634Z,104544
2018-07-18T10:33:52.209Z,104992
2018-07-18T10:34:52.772Z,104704
2018-07-18T10:35:53.342Z,107648
2018-07-18T10:36:53.913Z,110752
2018-07-18T10:37:54.492Z,112320
2018-07-18T10:38:55.068Z,113248
2018-07-18T10:39:55.663Z,113536
2018-07-18T10:40:56.217Z,115936
2018-07-18T10:41:56.799Z,115744
2018-07-18T10:42:57.376Z,114528
2018-07-18T10:43:57.946Z,115424
2018-07-18T10:44:58.522Z,117600
2018-07-18T10:45:59.094Z,117952
2018-07-18T10:46:59.670Z,117024
2018-07-18T10:48:00.248Z,121440
2018-07-18T10:49:00.815Z,120064
2018-07-18T10:50:01.389Z,116672
2018-07-18T10:51:01.966Z,80096
2018-07-18T10:52:02.545Z,34400
2018-07-18T10:53:03.125Z,103488
2018-07-18T10:54:03.697Z,103648
2018-07-18T10:55:04.275Z,76832
2018-07-18T10:56:04.891Z,69632
2018-07-18T10:57:05.412Z,124800
2018-07-18T10:58:05.998Z,119488
2018-07-18T10:59:06.578Z,112800
2018-07-18T11:00:07.144Z,115648
2018-07-18T11:01:07.721Z,118368
2018-07-18T11:02:08.307Z,86944
2018-07-18T11:03:08.865Z,35328
2018-07-18T11:04:09.440Z,33024
2018-07-18T11:05:10.026Z,76384
2018-07-18T11:06:10.604Z,114496
2018-07-18T11:07:11.169Z,113408
2018-07-18T11:08:11.735Z,106080
2018-07-18T11:09:12.309Z,110496
2018-07-18T11:10:12.884Z,38144
2018-07-18T11:11:13.452Z,34496
2018-07-18T11:12:14.021Z,32992
2018-07-18T11:13:14.597Z,32448
2018-07-18T11:14:15.162Z,32864
2018-07-18T11:15:15.733Z,33440
2018-07-18T11:16:16.303Z,35168
2018-07-18T11:17:16.877Z,37536
2018-07-18T11:18:17.450Z,41888
2018-07-18T11:19:18.022Z,125376
2018-07-18T11:20:18.598Z,129472
2018-07-18T11:21:19.170Z,132224
2018-07-18T11:22:19.746Z,36128
2018-07-18T11:23:20.311Z,33472
2018-07-18T11:24:20.886Z,32384
2018-07-18T11:25:21.457Z,32704
2018-07-18T11:26:22.064Z,34048
2018-07-18T11:27:22.592Z,36704
2018-07-18T11:28:23.185Z,124736
2018-07-18T11:29:23.749Z,119968
2018-07-18T11:30:24.327Z,42336
2018-07-18T11:31:24.901Z,100896
2018-07-18T11:32:25.472Z,119072
2018-07-18T11:33:26.051Z,29024
2018-07-18T11:34:26.622Z,30816
2018-07-18T11:35:27.186Z,27936
2018-07-18T11:36:27.757Z,27360
2018-07-18T11:37:28.325Z,29664
2018-07-18T11:38:28.899Z,121856
2018-07-18T11:39:29.537Z,126432
2018-07-18T11:40:30.046Z,127840
2018-07-18T11:41:30.621Z,127232
2018-07-18T11:42:31.257Z,123104
2018-07-18T11:43:31.766Z,122080
2018-07-18T11:44:32.340Z,121184
2018-07-18T11:45:32.919Z,121024
2018-07-18T11:46:33.488Z,123648
2018-07-18T11:47:34.070Z,125920
2018-07-18T11:48:34.647Z,124960
2018-07-18T11:49:35.242Z,120448
2018-07-18T11:50:36.052Z,118784
2018-07-18T11:51:36.418Z,119808
2018-07-18T11:52:36.987Z,120544
2018-07-18T11:53:37.562Z,118848
2018-07-18T11:54:38.141Z,116128
2018-07-18T11:55:38.769Z,114720
2018-07-18T11:56:39.293Z,116416
2018-07-18T11:57:39.872Z,122048
2018-07-18T11:58:40.451Z,127936
2018-07-18T11:59:41.023Z,121440
2018-07-18T12:00:41.602Z,97600
2018-07-18T12:01:42.210Z,38784
2018-07-18T12:02:42.755Z,40800
2018-07-18T12:03:43.378Z,36704
2018-07-18T12:04:43.896Z,33312
2018-07-18T12:05:44.473Z,31776
2018-07-18T12:06:45.045Z,32096
2018-07-18T12:07:45.622Z,30176
2018-07-18T12:08:46.196Z,30176
2018-07-18T12:09:46.760Z,31104
2018-07-18T12:10:47.332Z,47232
2018-07-18T12:11:47.907Z,119584
2018-07-18T12:12:48.479Z,120704
2018-07-18T12:13:49.054Z,115296
2018-07-18T12:14:49.631Z,100256
2018-07-18T12:15:50.204Z,28544
2018-07-18T12:16:50.787Z,31296
2018-07-18T12:17:51.358Z,121056
2018-07-18T12:18:51.946Z,113664
2018-07-18T12:19:52.536Z,122432
2018-07-18T12:20:53.104Z,123616
2018-07-18T12:21:53.674Z,124832
2018-07-18T12:22:54.247Z,126048
2018-07-18T12:23:54.824Z,124608
2018-07-18T12:24:55.401Z,122432
2018-07-18T12:25:55.983Z,119424
2018-07-18T12:26:56.554Z,119488
2018-07-18T12:27:57.132Z,120640
2018-07-18T12:28:57.720Z,121376
2018-07-18T12:29:58.283Z,36928
2018-07-18T12:30:58.869Z,110432
2018-07-18T12:31:59.455Z,127712
2018-07-18T12:33:00.041Z,128608
2018-07-18T12:34:00.618Z,127712
2018-07-18T12:35:01.199Z,60416
2018-07-18T12:36:01.764Z,80896
2018-07-18T12:37:02.340Z,126272
2018-07-18T12:38:02.909Z,31296
2018-07-18T12:39:03.483Z,26720
2018-07-18T12:40:04.053Z,25760
2018-07-18T12:41:04.621Z,25120
2018-07-18T12:42:05.196Z,25184
2018-07-18T12:43:05.771Z,25760
2018-07-18T12:44:06.344Z,26560
2018-07-18T12:45:06.912Z,28448
2018-07-18T12:46:07.482Z,30688
2018-07-18T12:47:08.055Z,40640
2018-07-18T12:48:08.631Z,38688
2018-07-18T12:49:09.253Z,123872
2018-07-18T12:50:09.810Z,122816
2018-07-18T12:51:10.406Z,33536
2018-07-18T12:52:11.019Z,30944
2018-07-18T12:53:11.585Z,29120
2018-07-18T12:54:12.157Z,28064
2018-07-18T12:55:12.750Z,27776
2018-07-18T12:56:13.300Z,27328
2018-07-18T12:57:13.912Z,28576
2018-07-18T12:58:14.441Z,29984
2018-07-18T12:59:15.012Z,30880
2018-07-18T13:00:15.581Z,31360
2018-07-18T13:01:16.155Z,32128
2018-07-18T13:02:16.728Z,33024
2018-07-18T13:03:17.299Z,34496
2018-07-18T13:04:17.886Z,36064
2018-07-18T13:05:18.455Z,35776
2018-07-18T13:06:19.020Z,35200
2018-07-18T13:07:19.610Z,34016
2018-07-18T13:08:20.173Z,32896
2018-07-18T13:09:20.758Z,32032
2018-07-18T13:10:21.336Z,31520
2018-07-18T13:11:21.911Z,31584
2018-07-18T13:12:22.480Z,32448
2018-07-18T13:13:23.065Z,34112
2018-07-18T13:14:23.638Z,46624
2018-07-18T13:15:24.210Z,40224
2018-07-18T13:16:24.780Z,36672
2018-07-18T13:17:25.350Z,49504
2018-07-18T13:18:25.921Z,84544
2018-07-18T13:19:26.484Z,113056
2018-07-18T13:20:27.067Z,32768
2018-07-18T13:21:27.627Z,33856
2018-07-18T13:22:28.199Z,29632
2018-07-18T13:23:28.764Z,28608
2018-07-18T13:24:29.330Z,27872
2018-07-18T13:25:29.898Z,27296
2018-07-18T13:26:30.472Z,27008
2018-07-18T13:27:31.037Z,27552